createdAt,value
2022-10-15T00:01:13.104Z,101086.38
2022-10-15T00:03:42.040Z,101085.53
2022-10-15T00:06:16.272Z,101080.22
2022-10-15T00:08:44.022Z,101083.09
2022-10-15T00:11:17.750Z,101078.56
2022-10-15T00:13:44.694Z,101074.22
2022-10-15T00:16:14.664Z,101076.75
2022-10-15T00:18:42.432Z,101083.00
2022-10-15T00:21:11.426Z,101071.56
2022-10-15T00:23:38.820Z,101072.53
2022-10-15T00:26:12.668Z,101062.78
2022-10-15T00:28:41.294Z,101063.78
2022-10-15T00:31:14.076Z,101067.38
2022-10-15T00:33:41.769Z,101067.47
2022-10-15T00:36:12.830Z,101059.47
2022-10-15T00:38:40.140Z,101057.78
2022-10-15T00:41:10.738Z,101063.03
2022-10-15T00:43:45.203Z,101055.09
2022-10-15T00:46:21.303Z,101048.16
2022-10-15T00:48:51.615Z,101047.31
2022-10-15T00:51:19.852Z,101043.81
2022-10-15T00:53:48.652Z,101052.56
2022-10-15T00:56:22.275Z,101038.59
2022-10-15T00:58:52.056Z,101040.28
2022-10-15T01:01:19.057Z,101042.88
2022-10-15T01:03:46.232Z,101034.88
2022-10-15T01:06:13.170Z,101039.41
2022-10-15T01:08:42.644Z,101042.97
2022-10-15T01:11:16.694Z,101036.69
2022-10-15T01:13:49.660Z,101040.31
2022-10-15T01:16:28.531Z,101032.31
2022-10-15T01:19:06.356Z,101034.03
2022-10-15T01:21:55.107Z,101042.09
2022-10-15T01:24:48.034Z,101033.09
2022-10-15T01:27:23.802Z,101027.84
2022-10-15T01:30:22.453Z,101031.31
2022-10-15T01:33:06.572Z,101026.03
2022-10-15T01:35:42.561Z,101028.72
2022-10-15T01:38:35.991Z,101026.03
2022-10-15T01:41:12.439Z,101019.03
2022-10-15T01:43:52.236Z,101024.50
2022-10-15T01:46:37.032Z,101021.88
2022-10-15T01:49:07.637Z,101025.38
2022-10-15T01:51:38.891Z,101024.53
2022-10-15T01:54:10.273Z,101022.75
2022-10-15T01:56:38.877Z,101016.66
2022-10-15T01:59:08.182Z,101014.84
2022-10-15T02:01:36.600Z,101020.13
2022-10-15T02:04:22.173Z,101003.41
2022-10-15T02:07:09.161Z,101013.06
2022-10-15T02:09:54.955Z,101008.66
2022-10-15T02:12:42.437Z,101012.28
2022-10-15T02:15:18.235Z,101013.94
2022-10-15T02:17:47.985Z,101015.69
2022-10-15T02:20:23.103Z,101010.44
2022-10-15T02:23:13.511Z,101011.28
2022-10-15T02:25:42.024Z,101006.88
2022-10-15T02:28:12.216Z,101001.56
2022-10-15T02:30:42.926Z,101005.09
2022-10-15T02:33:13.045Z,101007.81
2022-10-15T02:35:43.456Z,101010.44
2022-10-15T02:40:47.678Z,101008.72
2022-10-15T02:43:20.020Z,101012.16
2022-10-15T02:45:47.594Z,101010.44
2022-10-15T02:48:16.163Z,101006.13
2022-10-15T02:50:43.314Z,101003.47
2022-10-15T02:53:13.443Z,101001.69
2022-10-15T02:55:42.631Z,101006.06
2022-10-15T02:58:09.648Z,101008.69
2022-10-15T03:00:36.641Z,101003.38
2022-10-15T03:03:03.675Z,101008.72
2022-10-15T03:05:30.879Z,101011.41
2022-10-15T03:08:00.042Z,101007.00
2022-10-15T03:10:27.698Z,101011.41
2022-10-15T03:12:54.910Z,101006.97
2022-10-15T03:15:22.281Z,101001.63
2022-10-15T03:17:49.197Z,100998.97
2022-10-15T03:20:17.770Z,101001.56
2022-10-15T03:22:44.752Z,100982.13
2022-10-15T03:25:11.734Z,100995.31
2022-10-15T03:27:38.628Z,101003.97
2022-10-15T03:30:16.061Z,101000.50
2022-10-15T03:32:45.234Z,100995.25
2022-10-15T03:35:12.119Z,100997.03
2022-10-15T03:37:39.019Z,100987.28
2022-10-15T03:40:13.432Z,100982.13
2022-10-15T03:42:42.656Z,100990.81
2022-10-15T03:45:11.537Z,100987.38
2022-10-15T03:47:43.505Z,100986.59
2022-10-15T03:50:10.670Z,100989.22
2022-10-15T03:52:38.179Z,100989.94
2022-10-15T03:55:06.088Z,100971.69
2022-10-15T03:57:33.979Z,100983.00
2022-10-15T04:00:07.097Z,100984.72
2022-10-15T04:02:39.364Z,100979.59
2022-10-15T04:05:18.167Z,100976.88
2022-10-15T04:07:51.421Z,100987.41
2022-10-15T04:10:21.099Z,100999.78
2022-10-15T04:12:48.206Z,100994.59
2022-10-15T04:15:16.971Z,100987.66
2022-10-15T04:17:55.949Z,100992.06
2022-10-15T04:20:25.390Z,100999.06
2022-10-15T04:22:52.393Z,100990.31
2022-10-15T04:25:19.328Z,100993.78
2022-10-15T04:27:46.547Z,100992.88
2022-10-15T04:30:17.340Z,100986.69
2022-10-15T04:32:54.785Z,100991.09
2022-10-15T04:35:22.313Z,100989.34
2022-10-15T04:37:59.832Z,100988.50
2022-10-15T04:40:30.034Z,100989.19
2022-10-15T04:42:57.468Z,100988.41
2022-10-15T04:47:57.131Z,100989.19
2022-10-15T04:50:25.203Z,100992.66
2022-10-15T04:53:10.438Z,100990.91
2022-10-15T04:55:39.563Z,100990.81
2022-10-15T04:58:06.451Z,101009.94
2022-10-15T05:00:33.501Z,101006.72
2022-10-15T05:03:18.831Z,101017.88
2022-10-15T05:05:51.465Z,101012.31
2022-10-15T05:08:18.506Z,101015.28
2022-10-15T05:11:20.610Z,101020.63
2022-10-15T05:13:48.818Z,101019.66
2022-10-15T05:16:21.024Z,101012.72
2022-10-15T05:18:51.690Z,101030.84
2022-10-15T05:21:19.726Z,101022.41
2022-10-15T05:23:50.979Z,101026.25
2022-10-15T05:26:30.204Z,101032.53
2022-10-15T05:28:58.898Z,101030.53
2022-10-15T05:31:31.359Z,101031.63
2022-10-15T05:34:13.754Z,101035.66
2022-10-15T05:36:46.550Z,101040.78
2022-10-15T05:39:15.586Z,101041.88
2022-10-15T05:41:44.673Z,101050.28
2022-10-15T05:44:11.648Z,101048.38
2022-10-15T05:46:38.964Z,101049.44
2022-10-15T05:49:06.103Z,101052.34
2022-10-15T05:51:44.955Z,101063.84
2022-10-15T05:54:19.048Z,101057.25
2022-10-15T05:56:46.349Z,101073.00
2022-10-15T05:59:13.294Z,101064.00
2022-10-15T06:01:40.259Z,101064.91
2022-10-15T06:04:07.215Z,101077.69
2022-10-15T06:06:35.077Z,101063.09
2022-10-15T06:09:02.115Z,101066.59
2022-10-15T06:11:29.018Z,101064.50
2022-10-15T06:13:56.125Z,101065.66
2022-10-15T06:16:23.972Z,101061.78
2022-10-15T06:18:54.866Z,101062.16
2022-10-15T06:21:21.928Z,101062.88
2022-10-15T06:23:49.983Z,101056.03
2022-10-15T06:26:16.916Z,101067.28
2022-10-15T06:28:48.148Z,101069.75
2022-10-15T06:31:15.297Z,101061.41
2022-10-15T06:33:42.166Z,101070.13
2022-10-15T06:36:11.412Z,101078.09
2022-10-15T06:38:39.570Z,101069.19
2022-10-15T06:41:07.844Z,101069.34
2022-10-15T06:43:35.915Z,101073.81
2022-10-15T06:46:04.882Z,101085.38
2022-10-15T06:48:32.893Z,101089.50
2022-10-15T06:51:01.616Z,101096.31
2022-10-15T06:53:29.413Z,101095.13
2022-10-15T06:56:01.347Z,101090.41
2022-10-15T06:58:30.632Z,101085.44
2022-10-15T07:01:05.722Z,101091.78
2022-10-15T07:03:32.599Z,101084.19
2022-10-15T07:06:06.736Z,101088.66
2022-10-15T07:08:34.334Z,101087.94
2022-10-15T07:11:03.115Z,101085.03
2022-10-15T07:13:32.015Z,101084.84
2022-10-15T07:16:12.418Z,101090.22
2022-10-15T07:18:40.269Z,101089.91
2022-10-15T07:23:41.409Z,101093.44
2022-10-15T07:26:08.273Z,101093.88
2022-10-15T07:28:35.193Z,101094.34
2022-10-15T07:31:04.245Z,101093.81
2022-10-15T07:33:31.686Z,101086.94
2022-10-15T07:36:09.105Z,101093.25
2022-10-15T07:38:36.398Z,101093.56
2022-10-15T07:41:04.970Z,101097.06
2022-10-15T07:43:37.962Z,101100.00
2022-10-15T07:46:05.167Z,101104.38
2022-10-15T07:48:32.588Z,101100.44
2022-10-15T07:51:02.584Z,101107.00
2022-10-15T07:53:30.408Z,101099.91
2022-10-15T07:56:06.371Z,101105.13
2022-10-15T07:58:34.791Z,101104.38
2022-10-15T08:01:03.048Z,101111.19
2022-10-15T08:03:30.952Z,101100.47
2022-10-15T08:06:00.728Z,101104.25
2022-10-15T08:08:28.764Z,101094.72
2022-10-15T08:10:55.786Z,101080.91
2022-10-15T08:13:23.147Z,101100.81
2022-10-15T08:15:51.523Z,101095.97
2022-10-15T08:18:19.975Z,101092.63
2022-10-15T08:20:46.896Z,101095.41
2022-10-15T08:23:16.650Z,101091.19
2022-10-15T08:25:43.759Z,101093.88
2022-10-15T08:28:12.846Z,101087.31
2022-10-15T08:30:39.799Z,101077.34
2022-10-15T08:33:12.796Z,101088.16
2022-10-15T08:35:43.833Z,101089.47
2022-10-15T08:38:14.849Z,101089.59
2022-10-15T08:40:55.635Z,101093.94
2022-10-15T08:43:26.634Z,101088.69
2022-10-15T08:45:59.650Z,101092.72
2022-10-15T08:48:35.816Z,101087.34
2022-10-15T08:51:17.297Z,101091.19
2022-10-15T08:53:50.942Z,101096.34
2022-10-15T08:56:24.282Z,101099.22
2022-10-15T08:59:23.033Z,101105.75
2022-10-15T09:01:55.756Z,101104.56
2022-10-15T09:04:42.483Z,101106.91
2022-10-15T09:07:19.478Z,101105.16
2022-10-15T09:09:54.187Z,101103.16
2022-10-15T09:12:39.598Z,101116.78
2022-10-15T09:15:13.024Z,101105.56
2022-10-15T09:17:41.677Z,101122.72
2022-10-15T09:20:18.119Z,101118.53
2022-10-15T09:22:51.881Z,101130.81
2022-10-15T09:25:26.459Z,101119.47
2022-10-15T09:28:02.642Z,101113.97
2022-10-15T09:30:38.481Z,101113.72
2022-10-15T09:33:31.541Z,101119.16
2022-10-15T09:36:35.198Z,101130.59
2022-10-15T09:39:06.117Z,101132.94
2022-10-15T09:41:49.482Z,101131.91
2022-10-15T09:44:21.064Z,101120.84
2022-10-15T09:46:51.229Z,101120.16
2022-10-15T09:49:29.360Z,101123.63
2022-10-15T09:51:59.515Z,101132.97
2022-10-15T09:54:38.455Z,101132.47
2022-10-15T09:57:09.657Z,101141.81
2022-10-15T09:59:36.562Z,101132.28
2022-10-15T10:02:17.980Z,101130.34
2022-10-15T10:04:44.953Z,101123.34
2022-10-15T10:07:29.104Z,101134.22
2022-10-15T10:10:00.130Z,101133.88
2022-10-15T10:12:31.187Z,101132.81
2022-10-15T10:15:05.896Z,101135.97
2022-10-15T10:17:33.006Z,101126.44
2022-10-15T10:20:21.434Z,101142.50
2022-10-15T10:23:02.120Z,101143.63
2022-10-15T10:25:45.100Z,101144.22
2022-10-15T10:28:11.922Z,101150.28
2022-10-15T10:31:03.375Z,101143.47
2022-10-15T10:33:42.188Z,101142.03
2022-10-15T10:36:39.484Z,101150.84
2022-10-15T10:39:14.869Z,101151.56
2022-10-15T10:41:57.420Z,101154.13
2022-10-15T10:44:34.675Z,101149.63
2022-10-15T10:47:20.076Z,101145.22
2022-10-15T10:49:53.529Z,101152.78
2022-10-15T10:52:32.758Z,101146.66
2022-10-15T10:55:19.778Z,101151.13
2022-10-15T10:58:02.197Z,101147.91
2022-10-15T11:00:44.204Z,101145.13
2022-10-15T11:03:38.850Z,101145.03
2022-10-15T11:06:20.650Z,101138.13
2022-10-15T11:08:57.705Z,101142.84
2022-10-15T11:11:32.166Z,101144.75
2022-10-15T11:14:21.777Z,101146.78
2022-10-15T11:17:11.559Z,101143.47
2022-10-15T11:20:12.122Z,101147.13
2022-10-15T11:22:43.646Z,101145.56
2022-10-15T11:25:23.882Z,101140.63
2022-10-15T11:28:05.286Z,101143.03
2022-10-15T11:31:03.581Z,101145.28
2022-10-15T11:33:45.957Z,101146.44
2022-10-15T11:36:24.016Z,101131.63
2022-10-15T11:39:11.973Z,101128.72
2022-10-15T11:41:38.811Z,101136.41
2022-10-15T11:44:26.992Z,101133.47
2022-10-15T11:47:15.442Z,101134.44
2022-10-15T11:50:10.426Z,101145.63
2022-10-15T11:52:56.654Z,101132.88
2022-10-15T11:55:34.323Z,101138.69
2022-10-15T11:58:11.927Z,101129.59
2022-10-15T12:00:49.272Z,101137.13
2022-10-15T12:03:24.162Z,101136.34
2022-10-15T12:06:16.432Z,101132.72
2022-10-15T12:08:44.421Z,101122.25
2022-10-15T12:11:23.637Z,101127.88
2022-10-15T12:14:18.342Z,101131.09
2022-10-15T12:17:04.675Z,101135.72
2022-10-15T12:19:45.922Z,101130.91
2022-10-15T12:22:12.870Z,101133.75
2022-10-15T12:24:47.657Z,101133.59
2022-10-15T12:27:21.080Z,101135.97
2022-10-15T12:29:51.022Z,101134.22
2022-10-15T12:32:30.942Z,101143.75
2022-10-15T12:35:04.191Z,101151.84
2022-10-15T12:37:36.057Z,101143.13
2022-10-15T12:40:07.270Z,101148.75
2022-10-15T12:42:39.617Z,101142.03
2022-10-15T12:45:19.190Z,101153.59
2022-10-15T12:48:13.480Z,101146.97
2022-10-15T12:50:42.858Z,101145.41
2022-10-15T12:56:18.286Z,101157.00
2022-10-15T12:58:53.172Z,101152.84
2022-10-15T13:01:22.964Z,101157.53
2022-10-15T13:03:50.447Z,101152.97
2022-10-15T13:06:23.236Z,101154.16
2022-10-15T13:08:50.134Z,101157.31
2022-10-15T13:11:22.672Z,101160.00
2022-10-15T13:13:52.859Z,101157.25
2022-10-15T13:16:22.622Z,101160.38
2022-10-15T13:18:55.594Z,101174.72
2022-10-15T13:21:23.619Z,101174.91
2022-10-15T13:23:52.322Z,101165.78
2022-10-15T13:26:27.159Z,101166.38
2022-10-15T13:28:58.054Z,101161.91
2022-10-15T13:31:31.574Z,101166.63
2022-10-15T13:34:02.909Z,101164.22
2022-10-15T13:36:33.722Z,101170.81
2022-10-15T13:39:06.629Z,101166.22
2022-10-15T13:41:37.014Z,101167.75
2022-10-15T13:44:04.669Z,101166.63
2022-10-15T13:46:36.366Z,101166.41
2022-10-15T13:49:11.195Z,101165.72
2022-10-15T13:51:41.159Z,101161.75
2022-10-15T13:54:16.878Z,101166.22
2022-10-15T13:56:50.622Z,101172.13
2022-10-15T13:59:19.488Z,101163.47
2022-10-15T14:01:54.158Z,101169.66
2022-10-15T14:04:24.306Z,101166.78
2022-10-15T14:07:02.723Z,101173.75
2022-10-15T14:09:32.103Z,101171.47
2022-10-15T14:12:03.241Z,101170.91
2022-10-15T14:14:41.622Z,101170.63
2022-10-15T14:17:17.091Z,101180.69
2022-10-15T14:20:02.155Z,101188.28
2022-10-15T14:22:37.529Z,101185.84
2022-10-15T14:25:10.519Z,101182.56
2022-10-15T14:27:37.778Z,101180.66
2022-10-15T14:30:15.532Z,101186.34
2022-10-15T14:32:46.816Z,101201.97
2022-10-15T14:35:32.479Z,101203.00
2022-10-15T14:38:19.598Z,101194.22
2022-10-15T14:41:07.798Z,101201.16
2022-10-15T14:43:37.137Z,101197.19
2022-10-15T14:46:07.808Z,101202.41
2022-10-15T14:48:37.934Z,101210.84
2022-10-15T14:51:09.046Z,101205.31
2022-10-15T14:53:39.760Z,101207.31
2022-10-15T14:56:23.156Z,101211.28
2022-10-15T14:58:57.100Z,101206.38
2022-10-15T15:01:25.159Z,101204.56
2022-10-15T15:03:54.522Z,101211.41
2022-10-15T15:06:21.642Z,101200.63
2022-10-15T15:08:48.786Z,101206.44
2022-10-15T15:11:20.633Z,101210.84
2022-10-15T15:13:49.857Z,101217.75
2022-10-15T15:16:18.226Z,101209.75
2022-10-15T15:18:46.659Z,101209.13
2022-10-15T15:21:17.938Z,101213.56
2022-10-15T15:23:48.856Z,101215.28
2022-10-15T15:26:15.924Z,101220.09
2022-10-15T15:28:42.936Z,101217.44
2022-10-15T15:31:16.764Z,101213.69
2022-10-15T15:33:43.897Z,101224.13
2022-10-15T15:36:20.573Z,101221.16
2022-10-15T15:38:50.402Z,101225.72
2022-10-15T15:41:20.192Z,101230.78
2022-10-15T15:43:47.821Z,101233.06
2022-10-15T15:46:15.157Z,101237.50
2022-10-15T15:48:42.170Z,101239.25
2022-10-15T15:51:12.268Z,101242.66
2022-10-15T15:53:39.299Z,101244.84
2022-10-15T15:56:06.477Z,101246.09
2022-10-15T15:58:33.470Z,101242.66
2022-10-15T16:01:00.410Z,101241.03
2022-10-15T16:03:27.261Z,101250.50
2022-10-15T16:05:54.288Z,101246.50
2022-10-15T16:08:21.261Z,101246.69
2022-10-15T16:10:48.288Z,101253.75
2022-10-15T16:13:15.538Z,101255.16
2022-10-15T16:15:42.506Z,101254.69
2022-10-15T16:18:09.527Z,101263.19
2022-10-15T16:20:39.623Z,101260.09
2022-10-15T16:23:06.538Z,101263.28
2022-10-15T16:25:33.453Z,101261.31
2022-10-15T16:28:02.018Z,101262.41
2022-10-15T16:30:29.343Z,101259.81
2022-10-15T16:32:56.425Z,101251.22
2022-10-15T16:35:23.473Z,101258.13
2022-10-15T16:37:53.973Z,101259.63
2022-10-15T16:40:20.955Z,101268.25
2022-10-15T16:42:48.123Z,101265.97
2022-10-15T16:45:15.286Z,101274.91
2022-10-15T16:47:42.219Z,101274.38
2022-10-15T16:50:09.475Z,101285.72
2022-10-15T16:52:36.404Z,101283.41
2022-10-15T16:55:03.932Z,101292.09
2022-10-15T16:57:30.865Z,101285.09
2022-10-15T16:59:57.872Z,101289.66
2022-10-15T17:02:24.904Z,101289.72
2022-10-15T17:04:52.094Z,101300.47
2022-10-15T17:07:19.198Z,101301.44
2022-10-15T17:09:51.165Z,101310.03
2022-10-15T17:12:18.276Z,101304.91
2022-10-15T17:14:50.971Z,101299.78
2022-10-15T17:17:18.300Z,101302.22
2022-10-15T17:19:45.191Z,101297.03
2022-10-15T17:22:12.239Z,101295.91
2022-10-15T17:24:39.208Z,101301.22
2022-10-15T17:27:06.110Z,101305.41
2022-10-15T17:29:33.859Z,101300.06
2022-10-15T17:32:02.732Z,101306.91
2022-10-15T17:34:29.718Z,101304.38
2022-10-15T17:36:57.041Z,101307.03
2022-10-15T17:39:24.201Z,101305.91
2022-10-15T17:41:52.071Z,101310.50
2022-10-15T17:44:19.475Z,101310.72
2022-10-15T17:46:46.484Z,101307.28
2022-10-15T17:49:18.372Z,101311.66
2022-10-15T17:51:46.371Z,101311.69
2022-10-15T17:54:13.397Z,101311.81
2022-10-15T17:56:40.773Z,101313.41
2022-10-15T17:59:10.542Z,101310.81
2022-10-15T18:01:57.180Z,101310.53
2022-10-15T18:04:25.059Z,101318.34
2022-10-15T18:06:52.343Z,101313.06
2022-10-15T18:09:26.670Z,101309.69
2022-10-15T18:11:55.902Z,101314.22
2022-10-15T18:14:31.254Z,101314.75
2022-10-15T18:16:58.415Z,101311.41
2022-10-15T18:19:26.777Z,101310.09
2022-10-15T18:21:55.564Z,101317.91
2022-10-15T18:24:23.669Z,101317.03
2022-10-15T18:26:51.472Z,101317.66
2022-10-15T18:29:18.736Z,101318.19
2022-10-15T18:31:47.114Z,101329.00
2022-10-15T18:34:14.146Z,101328.66
2022-10-15T18:36:42.541Z,101329.06
2022-10-15T18:39:09.949Z,101329.69
2022-10-15T18:41:38.553Z,101333.41
2022-10-15T18:44:16.053Z,101329.66
2022-10-15T18:46:45.134Z,101324.97
2022-10-15T18:49:14.361Z,101327.13
2022-10-15T18:51:41.972Z,101325.88
2022-10-15T18:54:11.097Z,101327.41
2022-10-15T18:56:38.460Z,101335.66
2022-10-15T18:59:05.601Z,101332.09
2022-10-15T19:01:39.158Z,101330.97
2022-10-15T19:04:09.490Z,101334.44
2022-10-15T19:06:39.132Z,101339.81
2022-10-15T19:09:09.136Z,101343.88
2022-10-15T19:11:37.005Z,101345.91
2022-10-15T19:14:05.250Z,101350.00
2022-10-15T19:16:32.621Z,101341.78
2022-10-15T19:19:04.762Z,101350.22
2022-10-15T19:21:32.464Z,101356.53
2022-10-15T19:23:59.754Z,101357.69
2022-10-15T19:26:28.481Z,101363.94
2022-10-15T19:28:57.219Z,101365.03
2022-10-15T19:31:25.820Z,101372.97
2022-10-15T19:33:54.548Z,101378.38
2022-10-15T19:36:27.249Z,101374.78
2022-10-15T19:38:54.371Z,101371.16
2022-10-15T19:41:21.880Z,101369.25
2022-10-15T19:43:48.858Z,101369.41
2022-10-15T19:46:15.842Z,101376.63
2022-10-15T19:48:44.717Z,101373.75
2022-10-15T19:51:11.926Z,101378.44
2022-10-15T19:53:38.923Z,101377.56
2022-10-15T19:56:08.626Z,101372.38
2022-10-15T19:58:36.043Z,101374.81
2022-10-15T20:01:05.676Z,101372.28
2022-10-15T20:03:33.058Z,101375.91
2022-10-15T20:06:06.251Z,101375.16
2022-10-15T20:08:33.392Z,101374.22
2022-10-15T20:11:00.314Z,101376.06
2022-10-15T20:13:27.314Z,101382.50
2022-10-15T20:15:54.637Z,101380.84
2022-10-15T20:18:22.233Z,101387.03
2022-10-15T20:20:49.770Z,101378.19
2022-10-15T20:23:17.851Z,101380.69
2022-10-15T20:25:45.498Z,101385.63
2022-10-15T20:28:14.331Z,101377.06
2022-10-15T20:30:42.333Z,101375.25
2022-10-15T20:33:10.395Z,101369.59
2022-10-15T20:35:38.684Z,101377.81
2022-10-15T20:38:06.451Z,101376.13
2022-10-15T20:40:35.181Z,101382.50
2022-10-15T20:43:02.140Z,101385.09
2022-10-15T20:45:38.715Z,101373.34
2022-10-15T20:48:07.190Z,101379.84
2022-10-15T20:50:35.854Z,101383.31
2022-10-15T20:53:03.480Z,101382.50
2022-10-15T20:55:30.508Z,101393.03
2022-10-15T20:57:57.573Z,101385.13
2022-10-15T21:00:24.460Z,101380.75
2022-10-15T21:02:51.326Z,101382.41
2022-10-15T21:05:18.234Z,101385.75
2022-10-15T21:07:45.133Z,101389.97
2022-10-15T21:10:12.054Z,101387.22
2022-10-15T21:12:39.367Z,101389.22
2022-10-15T21:15:06.866Z,101391.91
2022-10-15T21:17:33.755Z,101394.69
2022-10-15T21:20:00.689Z,101395.41
2022-10-15T21:22:27.551Z,101392.78
2022-10-15T21:24:54.437Z,101405.63
2022-10-15T21:27:21.749Z,101397.31
2022-10-15T21:29:49.606Z,101396.59
2022-10-15T21:32:16.675Z,101407.91
2022-10-15T21:34:43.755Z,101406.66
2022-10-15T21:37:11.376Z,101398.78
2022-10-15T21:39:38.246Z,101398.69
2022-10-15T21:42:05.102Z,101395.19
2022-10-15T21:44:32.055Z,101397.97
2022-10-15T21:46:59.064Z,101396.28
2022-10-15T21:49:25.924Z,101399.69
2022-10-15T21:51:52.882Z,101400.25
2022-10-15T21:54:19.759Z,101392.59
2022-10-15T21:56:46.712Z,101391.84
2022-10-15T21:59:13.775Z,101397.13
2022-10-15T22:01:42.008Z,101391.19
2022-10-15T22:04:10.918Z,101389.00
2022-10-15T22:06:42.316Z,101383.50
2022-10-15T22:09:10.493Z,101387.88
2022-10-15T22:11:39.942Z,101385.31
2022-10-15T22:14:09.826Z,101389.13
2022-10-15T22:16:38.434Z,101383.84
2022-10-15T22:19:07.848Z,101374.28
2022-10-15T22:21:36.590Z,101374.22
2022-10-15T22:24:17.107Z,101380.19
2022-10-15T22:26:52.459Z,101376.84
2022-10-15T22:29:31.696Z,101394.69
2022-10-15T22:32:02.388Z,101391.19
2022-10-15T22:34:29.473Z,101387.53
2022-10-15T22:36:56.367Z,101394.53
2022-10-15T22:39:23.322Z,101396.56
2022-10-15T22:41:50.259Z,101404.59
2022-10-15T22:44:19.737Z,101420.56
2022-10-15T22:46:49.604Z,101418.03
2022-10-15T22:49:21.793Z,101416.06
2022-10-15T22:51:50.403Z,101419.91
2022-10-15T22:54:19.700Z,101421.53
2022-10-15T22:56:47.418Z,101416.22
2022-10-15T22:59:15.268Z,101411.75
2022-10-15T23:01:42.782Z,101414.38
2022-10-15T23:04:12.497Z,101407.41
2022-10-15T23:06:39.469Z,101409.31
2022-10-15T23:09:07.838Z,101401.38
2022-10-15T23:11:40.272Z,101411.97
2022-10-15T23:14:12.225Z,101415.44
2022-10-15T23:16:41.931Z,101407.63
2022-10-15T23:19:22.912Z,101414.81
2022-10-15T23:21:51.464Z,101410.41
2022-10-15T23:24:21.490Z,101411.38
2022-10-15T23:26:48.972Z,101421.06
2022-10-15T23:29:18.723Z,101420.16
2022-10-15T23:31:46.726Z,101425.50
2022-10-15T23:34:16.061Z,101422.00
2022-10-15T23:36:44.257Z,101435.25
2022-10-15T23:39:24.685Z,101433.47
2022-10-15T23:41:51.769Z,101437.91
2022-10-15T23:44:19.242Z,101439.66
2022-10-15T23:46:46.562Z,101436.97
2022-10-15T23:49:13.994Z,101448.34
2022-10-15T23:51:41.506Z,101448.44
2022-10-15T23:54:15.519Z,101449.28
2022-10-15T23:56:42.788Z,101448.41
2022-10-15T23:59:09.795Z,101447.50
